createdAt,value
2019-05-02T00:10:01.218Z,18.27
2019-05-02T00:25:11.068Z,20.02
2019-05-02T00:40:20.126Z,18.77
2019-05-02T00:55:28.908Z,14.65
2019-05-02T01:10:37.376Z,17.15
2019-05-02T01:25:47.410Z,15.50
2019-05-02T01:40:55.869Z,15.68
2019-05-02T01:56:02.914Z,15.00
2019-05-02T02:11:12.254Z,15.25
2019-05-02T02:26:23.589Z,17.92
2019-05-02T02:41:30.659Z,25.40
2019-05-02T02:56:40.448Z,27.45
2019-05-02T03:11:49.478Z,24.52
2019-05-02T03:26:59.595Z,29.98
2019-05-02T03:42:07.488Z,21.52
2019-05-02T03:57:14.190Z,24.10
2019-05-02T04:12:22.999Z,21.73
2019-05-02T04:27:34.209Z,23.60
2019-05-02T04:42:40.690Z,18.60
2019-05-02T04:57:51.047Z,18.15
2019-05-02T05:12:57.305Z,16.93
2019-05-02T05:28:06.094Z,17.10
2019-05-02T05:43:15.882Z,12.20
2019-05-02T05:58:22.367Z,10.70
2019-05-02T06:13:29.446Z,9.45
2019-05-02T06:43:46.535Z,14.47
2019-05-02T06:58:54.217Z,18.73
2019-05-02T07:14:12.421Z,12.98
2019-05-02T07:29:09.698Z,15.83
2019-05-02T07:44:16.387Z,13.75
2019-05-02T07:59:25.147Z,14.03
2019-05-02T08:14:34.654Z,12.13
2019-05-02T08:30:35.270Z,12.15
2019-05-02T08:45:39.642Z,9.80
2019-05-02T09:00:47.697Z,10.23
2019-05-02T09:15:56.089Z,10.53
2019-05-02T09:31:06.647Z,9.55
2019-05-02T09:46:16.794Z,8.68
2019-05-02T10:01:37.182Z,9.43
2019-05-02T10:16:45.797Z,11.63
2019-05-02T10:31:52.888Z,8.50
2019-05-02T10:47:00.039Z,9.18
2019-05-02T11:02:09.573Z,8.98
2019-05-02T11:17:22.628Z,9.85
2019-05-02T11:32:28.809Z,8.88
2019-05-02T11:47:35.631Z,15.65
2019-05-02T12:02:42.009Z,8.58
2019-05-02T12:17:48.955Z,8.68
2019-05-02T12:32:55.915Z,9.88
2019-05-02T12:48:02.901Z,8.90
2019-05-02T13:03:12.008Z,8.28
2019-05-02T13:18:25.372Z,6.85
2019-05-02T13:33:35.839Z,9.00
2019-05-02T13:48:42.747Z,10.05
2019-05-02T14:03:49.494Z,10.35
2019-05-02T14:18:57.207Z,8.10
2019-05-02T14:34:21.767Z,8.00
2019-05-02T14:49:28.760Z,8.95
2019-05-02T15:04:38.209Z,8.20
2019-05-02T15:19:43.822Z,9.03
2019-05-02T15:34:55.819Z,8.75
2019-05-02T15:50:03.027Z,9.88
2019-05-02T16:05:11.881Z,10.38
2019-05-02T16:20:33.803Z,13.08
2019-05-02T16:35:42.008Z,14.45
2019-05-02T16:50:50.201Z,9.15
2019-05-02T17:05:56.980Z,10.75
2019-05-02T17:21:04.600Z,12.63
2019-05-02T17:36:11.710Z,12.45
2019-05-02T17:51:33.920Z,18.73
2019-05-02T18:06:38.479Z,12.70
2019-05-02T18:21:45.959Z,16.82
2019-05-02T18:36:57.489Z,16.37
2019-05-02T18:52:02.117Z,25.88
2019-05-02T19:07:14.312Z,23.55
2019-05-02T19:22:18.507Z,21.52
2019-05-02T19:37:25.874Z,16.90
2019-05-02T20:07:42.550Z,22.32
2019-05-02T20:22:49.236Z,29.52
2019-05-02T20:37:55.931Z,30.02
2019-05-02T20:53:04.249Z,31.35
2019-05-02T21:08:10.802Z,24.70
2019-05-02T21:23:18.450Z,31.33
2019-05-02T21:38:25.937Z,25.62
2019-05-02T21:53:56.036Z,27.20
2019-05-02T22:08:59.513Z,25.82
2019-05-02T22:24:11.305Z,27.13
2019-05-02T22:39:16.320Z,19.75
2019-05-02T22:54:30.229Z,25.32
2019-05-02T23:09:33.334Z,23.57
2019-05-02T23:24:53.974Z,23.25
2019-05-02T23:40:02.124Z,21.48
2019-05-02T23:55:12.253Z,16.75
